createdAt,value
2022-09-15T00:00:29.274Z,100832.59
2022-09-15T00:02:55.947Z,100826.94
2022-09-15T00:05:22.719Z,100834.38
2022-09-15T00:07:49.079Z,100833.78
2022-09-15T00:10:15.499Z,100831.59
2022-09-15T00:12:41.893Z,100829.56
2022-09-15T00:15:08.804Z,100824.75
2022-09-15T00:17:35.154Z,100822.53
2022-09-15T00:20:02.058Z,100825.78
2022-09-15T00:22:28.449Z,100830.38
2022-09-15T00:24:54.847Z,100827.38
2022-09-15T00:27:21.224Z,100829.59
2022-09-15T00:29:47.702Z,100832.38
2022-09-15T00:32:14.107Z,100826.56
2022-09-15T00:34:40.479Z,100829.38
2022-09-15T00:37:07.168Z,100834.59
2022-09-15T00:39:38.909Z,100837.78
2022-09-15T00:42:05.631Z,100837.00
2022-09-15T00:44:57.683Z,100828.34
2022-09-15T00:47:28.823Z,100830.34
2022-09-15T00:50:01.287Z,100828.72
2022-09-15T00:52:34.047Z,100837.78
2022-09-15T00:55:07.131Z,100842.59
2022-09-15T00:57:39.850Z,100832.56
2022-09-15T01:00:10.382Z,100834.75
2022-09-15T01:02:37.975Z,100834.94
2022-09-15T01:05:09.095Z,100840.38
2022-09-15T01:07:47.070Z,100827.53
2022-09-15T01:10:25.659Z,100826.72
2022-09-15T01:12:57.034Z,100830.75
2022-09-15T01:15:29.339Z,100840.75
2022-09-15T01:18:32.914Z,100827.09
2022-09-15T01:21:08.409Z,100838.56
2022-09-15T01:23:55.474Z,100834.53
2022-09-15T01:26:37.008Z,100845.56
2022-09-15T01:29:24.591Z,100849.00
2022-09-15T01:32:24.210Z,100838.78
2022-09-15T01:35:12.188Z,100850.00
2022-09-15T01:37:44.772Z,100843.19
2022-09-15T01:40:14.790Z,100843.59
2022-09-15T01:42:44.037Z,100840.97
2022-09-15T01:45:18.042Z,100842.75
2022-09-15T01:47:47.778Z,100835.97
2022-09-15T01:50:21.070Z,100847.19
2022-09-15T01:52:52.271Z,100849.19
2022-09-15T01:55:36.939Z,100845.34
2022-09-15T01:58:03.772Z,100845.75
2022-09-15T02:00:35.867Z,100850.75
2022-09-15T02:03:09.976Z,100848.75
2022-09-15T02:05:45.006Z,100847.53
2022-09-15T02:08:29.683Z,100840.72
2022-09-15T02:11:12.815Z,100846.91
2022-09-15T02:14:18.312Z,100842.91
2022-09-15T02:16:49.808Z,100842.13
2022-09-15T02:19:33.256Z,100846.72
2022-09-15T02:22:23.310Z,100841.50
2022-09-15T02:25:05.895Z,100846.91
2022-09-15T02:27:40.310Z,100836.47
2022-09-15T02:30:11.672Z,100844.69
2022-09-15T02:32:46.632Z,100847.72
2022-09-15T02:35:15.456Z,100849.94
2022-09-15T02:37:42.068Z,100851.13
2022-09-15T02:40:09.251Z,100847.94
2022-09-15T02:42:36.207Z,100849.38
2022-09-15T02:45:03.650Z,100861.19
2022-09-15T02:47:30.191Z,100855.19
2022-09-15T02:49:57.133Z,100856.78
2022-09-15T02:52:23.883Z,100851.34
2022-09-15T02:54:50.602Z,100859.19
2022-09-15T02:57:17.144Z,100846.78
2022-09-15T03:00:02.143Z,100852.59
2022-09-15T03:02:28.860Z,100846.19
2022-09-15T03:04:55.381Z,100850.97
2022-09-15T03:07:21.723Z,100850.00
2022-09-15T03:09:48.068Z,100853.38
2022-09-15T03:12:14.580Z,100851.41
2022-09-15T03:14:41.129Z,100847.00
2022-09-15T03:17:07.611Z,100848.59
2022-09-15T03:19:33.979Z,100851.81
2022-09-15T03:22:00.495Z,100847.38
2022-09-15T03:24:26.937Z,100853.19
2022-09-15T03:26:53.404Z,100850.41
2022-09-15T03:29:19.779Z,100858.03
2022-09-15T03:31:46.331Z,100858.03
2022-09-15T03:34:12.942Z,100866.47
2022-09-15T03:36:39.368Z,100864.66
2022-09-15T03:39:05.717Z,100867.28
2022-09-15T03:41:32.185Z,100869.28
2022-09-15T03:43:58.545Z,100877.09
2022-09-15T03:46:24.932Z,100874.31
2022-09-15T03:48:51.287Z,100870.88
2022-09-15T03:51:17.676Z,100862.44
2022-09-15T03:53:44.153Z,100868.84
2022-09-15T03:56:27.301Z,100866.03
2022-09-15T03:58:54.294Z,100863.25
2022-09-15T04:01:21.227Z,100875.69
2022-09-15T04:03:51.046Z,100888.53
2022-09-15T04:06:19.108Z,100883.13
2022-09-15T04:08:45.552Z,100882.31
2022-09-15T04:11:12.931Z,100883.91
2022-09-15T04:13:41.862Z,100874.09
2022-09-15T04:16:13.410Z,100864.28
2022-09-15T04:18:40.235Z,100865.88
2022-09-15T04:21:10.438Z,100869.88
2022-09-15T04:23:37.114Z,100874.13
2022-09-15T04:26:32.867Z,100868.72
2022-09-15T04:29:04.280Z,100873.56
2022-09-15T04:31:32.179Z,100866.50
2022-09-15T04:33:59.306Z,100872.53
2022-09-15T04:36:28.146Z,100872.31
2022-09-15T04:38:55.353Z,100872.31
2022-09-15T04:41:22.617Z,100873.94
2022-09-15T04:43:49.570Z,100868.53
2022-09-15T04:46:16.905Z,100867.53
2022-09-15T04:48:45.406Z,100872.53
2022-09-15T04:51:15.475Z,100872.31
2022-09-15T04:53:42.190Z,100865.53
2022-09-15T04:56:15.491Z,100868.13
2022-09-15T04:58:44.726Z,100858.50
2022-09-15T05:01:13.681Z,100866.31
2022-09-15T05:03:40.767Z,100864.50
2022-09-15T05:06:10.257Z,100868.94
2022-09-15T05:08:37.372Z,100869.72
2022-09-15T05:11:07.057Z,100867.09
2022-09-15T05:13:34.945Z,100869.72
2022-09-15T05:16:22.712Z,100881.38
2022-09-15T05:18:50.511Z,100878.56
2022-09-15T05:21:19.370Z,100873.94
2022-09-15T05:23:46.460Z,100876.56
2022-09-15T05:26:17.027Z,100874.34
2022-09-15T05:28:43.821Z,100874.13
2022-09-15T05:31:19.806Z,100878.16
2022-09-15T05:33:48.076Z,100875.16
2022-09-15T05:36:15.778Z,100873.13
2022-09-15T05:38:42.399Z,100877.38
2022-09-15T05:41:11.642Z,100877.38
2022-09-15T05:43:39.411Z,100876.13
2022-09-15T05:46:07.742Z,100881.16
2022-09-15T05:48:34.794Z,100882.56
2022-09-15T05:51:01.217Z,100883.75
2022-09-15T05:53:28.300Z,100887.00
2022-09-15T05:55:56.769Z,100885.56
2022-09-15T05:58:23.982Z,100887.78
2022-09-15T06:00:50.733Z,100884.56
2022-09-15T06:03:19.460Z,100884.16
2022-09-15T06:05:46.409Z,100892.38
2022-09-15T06:08:12.861Z,100885.78
2022-09-15T06:10:39.820Z,100884.13
2022-09-15T06:13:06.233Z,100885.94
2022-09-15T06:15:32.687Z,100884.91
2022-09-15T06:17:59.039Z,100887.31
2022-09-15T06:20:25.480Z,100900.94
2022-09-15T06:22:53.158Z,100898.72
2022-09-15T06:25:19.560Z,100903.13
2022-09-15T06:27:49.209Z,100903.72
2022-09-15T06:30:16.078Z,100909.16
2022-09-15T06:32:47.417Z,100908.72
2022-09-15T06:35:15.263Z,100910.13
2022-09-15T06:37:41.692Z,100917.53
2022-09-15T06:40:08.809Z,100913.31
2022-09-15T06:42:35.379Z,100913.94
2022-09-15T06:45:01.813Z,100907.56
2022-09-15T06:47:33.722Z,100916.34
2022-09-15T06:50:00.926Z,100919.84
2022-09-15T06:52:27.710Z,100928.09
2022-09-15T06:54:54.086Z,100930.91
2022-09-15T06:57:20.543Z,100929.63
2022-09-15T06:59:46.894Z,100934.44
2022-09-15T07:02:13.626Z,100922.66
2022-09-15T07:04:40.259Z,100921.84
2022-09-15T07:07:06.623Z,100931.47
2022-09-15T07:09:32.941Z,100933.56
2022-09-15T07:11:59.267Z,100944.38
2022-09-15T07:14:25.794Z,100950.59
2022-09-15T07:16:52.347Z,100964.97
2022-09-15T07:19:18.718Z,100960.41
2022-09-15T07:21:45.233Z,100961.78
2022-09-15T07:24:12.667Z,100975.69
2022-09-15T07:26:39.167Z,100974.81
2022-09-15T07:29:06.863Z,100972.69
2022-09-15T07:31:35.335Z,100980.25
2022-09-15T07:34:02.203Z,100975.66
2022-09-15T07:36:30.530Z,100977.94
2022-09-15T07:38:57.296Z,100980.69
2022-09-15T07:41:26.460Z,100975.81
2022-09-15T07:43:54.861Z,100974.94
2022-09-15T07:46:22.799Z,100977.00
2022-09-15T07:48:51.821Z,100977.28
2022-09-15T07:51:18.805Z,100974.88
2022-09-15T07:53:47.551Z,100979.81
2022-09-15T07:56:14.677Z,100979.19
2022-09-15T07:58:41.126Z,100988.22
2022-09-15T08:01:11.213Z,100985.88
2022-09-15T08:03:46.214Z,100984.25
2022-09-15T08:06:13.711Z,100986.09
2022-09-15T08:08:40.520Z,100983.38
2022-09-15T08:11:15.121Z,100995.84
2022-09-15T08:13:44.894Z,100997.59
2022-09-15T08:16:13.982Z,100994.97
2022-09-15T08:18:42.564Z,100988.25
2022-09-15T08:21:16.201Z,100997.94
2022-09-15T08:23:42.942Z,101006.56
2022-09-15T08:26:14.197Z,101014.69
2022-09-15T08:28:41.753Z,101011.88
2022-09-15T08:31:09.498Z,101008.69
2022-09-15T08:33:36.102Z,101023.09
2022-09-15T08:36:05.971Z,101023.44
2022-09-15T08:38:32.699Z,101024.06
2022-09-15T08:41:01.777Z,101025.41
2022-09-15T08:43:35.684Z,101029.47
2022-09-15T08:46:06.075Z,101034.50
2022-09-15T08:48:49.302Z,101036.81
2022-09-15T08:51:29.897Z,101034.78
2022-09-15T08:54:03.018Z,101037.88
2022-09-15T08:56:30.358Z,101041.91
2022-09-15T08:58:57.021Z,101045.09
2022-09-15T09:01:49.467Z,101042.56
2022-09-15T09:05:05.221Z,101043.13
2022-09-15T09:08:01.749Z,101043.13
2022-09-15T09:11:02.419Z,101058.50
2022-09-15T09:14:04.476Z,101048.22
2022-09-15T09:16:55.975Z,101043.69
2022-09-15T09:19:32.342Z,101042.47
2022-09-15T09:22:11.429Z,101056.19
2022-09-15T09:24:42.973Z,101045.09
2022-09-15T09:27:19.723Z,101052.38
2022-09-15T09:30:08.047Z,101048.47
2022-09-15T09:33:08.494Z,101041.16
2022-09-15T09:35:43.476Z,101048.16
2022-09-15T09:38:11.255Z,101055.00
2022-09-15T09:40:41.134Z,101060.78
2022-09-15T09:43:08.632Z,101060.97
2022-09-15T09:45:35.208Z,101061.16
2022-09-15T09:48:09.740Z,101062.38
2022-09-15T09:50:43.538Z,101069.16
2022-09-15T09:53:36.491Z,101059.69
2022-09-15T09:56:12.428Z,101057.88
2022-09-15T09:58:38.935Z,101069.88
2022-09-15T10:01:25.150Z,101068.97
2022-09-15T10:04:19.018Z,101073.78
2022-09-15T10:06:46.582Z,101069.75
2022-09-15T10:09:18.214Z,101054.75
2022-09-15T10:11:56.382Z,101058.78
2022-09-15T10:14:27.522Z,101051.59
2022-09-15T10:16:58.493Z,101049.28
2022-09-15T10:19:25.391Z,101044.81
2022-09-15T10:21:51.932Z,101054.66
2022-09-15T10:24:27.139Z,101052.59
2022-09-15T10:27:17.402Z,101047.69
2022-09-15T10:29:43.994Z,101039.44
2022-09-15T10:32:24.815Z,101040.09
2022-09-15T10:35:04.092Z,101038.97
2022-09-15T10:37:35.989Z,101036.56
2022-09-15T10:40:43.984Z,101033.50
2022-09-15T10:43:46.615Z,101033.28
2022-09-15T10:46:28.243Z,101026.81
2022-09-15T10:49:12.062Z,101027.25
2022-09-15T10:51:59.948Z,101015.91
2022-09-15T10:54:54.411Z,101017.69
2022-09-15T10:57:58.031Z,101018.56
2022-09-15T11:00:25.657Z,101020.75
2022-09-15T11:03:28.311Z,101023.19
2022-09-15T11:06:29.902Z,101014.78
2022-09-15T11:09:23.236Z,101016.72
2022-09-15T11:12:28.498Z,101026.22
2022-09-15T11:15:38.746Z,101022.03
2022-09-15T11:18:19.300Z,101022.69
2022-09-15T11:21:05.271Z,101021.66
2022-09-15T11:23:40.058Z,101018.50
2022-09-15T11:26:12.590Z,101014.38
2022-09-15T11:28:43.703Z,101007.22
2022-09-15T11:31:27.679Z,101007.72
2022-09-15T11:33:57.150Z,101003.44
2022-09-15T11:36:33.686Z,101016.78
2022-09-15T11:39:11.511Z,101012.44
2022-09-15T11:42:05.486Z,101012.78
2022-09-15T11:44:35.008Z,101022.56
2022-09-15T11:47:28.260Z,101029.00
2022-09-15T11:50:11.475Z,101028.16
2022-09-15T11:52:57.418Z,101031.34
2022-09-15T11:55:42.331Z,101019.81
2022-09-15T11:58:22.896Z,101023.28
2022-09-15T12:00:55.918Z,101015.31
2022-09-15T12:03:34.032Z,101021.59
2022-09-15T12:06:28.473Z,101008.09
2022-09-15T12:09:01.106Z,101010.50
2022-09-15T12:11:34.464Z,101009.16
2022-09-15T12:14:03.455Z,101004.97
2022-09-15T12:16:30.435Z,101004.22
2022-09-15T12:19:09.084Z,101001.59
2022-09-15T12:21:58.148Z,101001.16
2022-09-15T12:25:02.690Z,101006.09
2022-09-15T12:27:29.778Z,100994.66
2022-09-15T12:29:58.512Z,101004.13
2022-09-15T12:32:29.315Z,101015.31
2022-09-15T12:35:11.434Z,101016.75
2022-09-15T12:37:44.331Z,101022.50
2022-09-15T12:40:29.829Z,101018.13
2022-09-15T12:43:22.862Z,101022.88
2022-09-15T12:45:59.100Z,101032.31
2022-09-15T12:48:29.364Z,101032.13
2022-09-15T12:51:10.420Z,101037.84
2022-09-15T12:53:49.907Z,101038.09
2022-09-15T12:56:31.717Z,101042.44
2022-09-15T12:59:13.881Z,101055.75
2022-09-15T13:01:43.408Z,101056.06
2022-09-15T13:04:09.702Z,101062.28
2022-09-15T13:06:36.120Z,101060.00
2022-09-15T13:09:02.426Z,101051.91
2022-09-15T13:11:37.117Z,101050.66
2022-09-15T13:14:03.650Z,101051.34
2022-09-15T13:16:48.180Z,101057.38
2022-09-15T13:19:33.164Z,101058.78
2022-09-15T13:22:11.693Z,101055.59
2022-09-15T13:24:47.300Z,101051.44
2022-09-15T13:27:21.445Z,101050.91
2022-09-15T13:30:02.828Z,101053.81
2022-09-15T13:32:43.625Z,101047.97
2022-09-15T13:35:18.763Z,101046.41
2022-09-15T13:38:15.205Z,101042.66
2022-09-15T13:41:11.831Z,101035.53
2022-09-15T13:44:02.310Z,101042.72
2022-09-15T13:46:35.568Z,101042.50
2022-09-15T13:49:14.132Z,101034.75
2022-09-15T13:51:45.514Z,101034.38
2022-09-15T13:54:19.411Z,101037.94
2022-09-15T13:56:47.364Z,101039.66
2022-09-15T13:59:18.599Z,101036.56
2022-09-15T14:01:45.471Z,101046.22
2022-09-15T14:04:28.262Z,101034.47
2022-09-15T14:07:00.202Z,101039.53
2022-09-15T14:09:33.175Z,101040.78
2022-09-15T14:12:04.864Z,101055.13
2022-09-15T14:14:37.876Z,101047.56
2022-09-15T14:17:04.565Z,101063.22
2022-09-15T14:19:38.785Z,101061.34
2022-09-15T14:22:29.411Z,101065.69
2022-09-15T14:24:57.334Z,101066.69
2022-09-15T14:27:32.084Z,101067.44
2022-09-15T14:30:02.614Z,101068.13
2022-09-15T14:32:34.179Z,101060.25
2022-09-15T14:35:06.451Z,101061.63
2022-09-15T14:37:33.632Z,101060.03
2022-09-15T14:40:02.091Z,101071.56
2022-09-15T14:42:33.617Z,101068.50
2022-09-15T14:48:01.170Z,101070.25
2022-09-15T14:50:32.815Z,101072.66
2022-09-15T14:53:23.018Z,101062.03
2022-09-15T14:55:49.511Z,101068.81
2022-09-15T14:58:27.110Z,101070.09
2022-09-15T15:01:00.366Z,101061.75
2022-09-15T15:03:41.846Z,101060.50
2022-09-15T15:06:29.459Z,101062.56
2022-09-15T15:09:23.888Z,101057.31
2022-09-15T15:11:53.112Z,101059.56
2022-09-15T15:14:19.712Z,101059.03
2022-09-15T15:17:24.669Z,101057.47
2022-09-15T15:19:58.712Z,101049.97
2022-09-15T15:22:25.456Z,101049.22
2022-09-15T15:24:53.280Z,101052.44
2022-09-15T15:27:50.627Z,101052.78
2022-09-15T15:30:26.409Z,101053.59
2022-09-15T15:32:53.855Z,101065.19
2022-09-15T15:35:21.186Z,101060.59
2022-09-15T15:37:48.352Z,101063.56
2022-09-15T15:40:18.419Z,101067.03
2022-09-15T15:42:57.705Z,101068.72
2022-09-15T15:45:30.367Z,101069.06
2022-09-15T15:47:57.261Z,101075.47
2022-09-15T15:50:26.179Z,101076.50
2022-09-15T15:52:53.283Z,101087.22
2022-09-15T15:55:26.701Z,101086.84
2022-09-15T15:57:55.326Z,101092.59
2022-09-15T16:00:30.369Z,101096.81
2022-09-15T16:02:56.888Z,101092.19
2022-09-15T16:05:27.632Z,101096.38
2022-09-15T16:07:56.030Z,101093.84
2022-09-15T16:10:24.335Z,101103.25
2022-09-15T16:12:50.703Z,101105.31
2022-09-15T16:15:20.402Z,101106.28
2022-09-15T16:17:47.975Z,101107.28
2022-09-15T16:20:25.030Z,101101.56
2022-09-15T16:22:52.087Z,101097.84
2022-09-15T16:25:27.616Z,101094.84
2022-09-15T16:27:54.008Z,101098.13
2022-09-15T16:30:20.488Z,101092.59
2022-09-15T16:32:46.810Z,101106.81
2022-09-15T16:35:24.515Z,101100.66
2022-09-15T16:37:50.880Z,101099.13
2022-09-15T16:40:17.905Z,101104.44
2022-09-15T16:42:45.194Z,101111.69
2022-09-15T16:45:23.112Z,101110.75
2022-09-15T16:47:49.576Z,101101.53
2022-09-15T16:50:16.002Z,101103.66
2022-09-15T16:52:42.763Z,101103.28
2022-09-15T16:55:26.197Z,101113.59
2022-09-15T16:57:52.540Z,101116.25
2022-09-15T17:00:19.017Z,101112.91
2022-09-15T17:02:45.455Z,101109.66
2022-09-15T17:05:19.144Z,101107.81
2022-09-15T17:07:48.800Z,101103.78
2022-09-15T17:10:15.400Z,101106.88
2022-09-15T17:12:41.838Z,101103.69
2022-09-15T17:15:29.553Z,101100.91
2022-09-15T17:17:57.113Z,101099.72
2022-09-15T17:20:25.242Z,101106.78
2022-09-15T17:22:52.776Z,101112.22
2022-09-15T17:25:35.741Z,101103.41
2022-09-15T17:28:02.794Z,101105.03
2022-09-15T17:30:31.442Z,101105.88
2022-09-15T17:33:06.192Z,101111.56
2022-09-15T17:35:36.896Z,101103.88
2022-09-15T17:38:05.333Z,101109.56
2022-09-15T17:40:32.585Z,101112.19
2022-09-15T17:43:00.543Z,101099.75
2022-09-15T17:45:30.834Z,101110.44
2022-09-15T17:47:57.530Z,101101.78
2022-09-15T17:50:25.506Z,101118.13
2022-09-15T17:52:51.833Z,101112.31
2022-09-15T17:55:22.127Z,101115.94
2022-09-15T17:57:49.786Z,101119.59
2022-09-15T18:00:18.835Z,101122.44
2022-09-15T18:02:49.390Z,101127.09
2022-09-15T18:05:23.214Z,101123.09
2022-09-15T18:07:50.373Z,101123.69
2022-09-15T18:10:17.732Z,101132.19
2022-09-15T18:12:48.392Z,101125.53
2022-09-15T18:15:22.663Z,101130.16
2022-09-15T18:17:50.520Z,101126.72
2022-09-15T18:20:20.495Z,101127.56
2022-09-15T18:22:48.308Z,101146.44
2022-09-15T18:25:28.297Z,101150.28
2022-09-15T18:27:55.613Z,101158.53
2022-09-15T18:30:23.792Z,101152.69
2022-09-15T18:32:50.585Z,101163.94
2022-09-15T18:35:19.382Z,101160.69
2022-09-15T18:37:53.982Z,101171.13
2022-09-15T18:40:20.399Z,101172.28
2022-09-15T18:42:46.850Z,101169.88
2022-09-15T18:45:15.996Z,101174.88
2022-09-15T18:47:42.832Z,101187.94
2022-09-15T18:50:12.180Z,101189.53
2022-09-15T18:52:40.632Z,101194.31
2022-09-15T18:55:15.047Z,101178.03
2022-09-15T18:57:42.331Z,101180.63
2022-09-15T19:00:12.719Z,101176.59
2022-09-15T19:02:39.392Z,101170.34
2022-09-15T19:05:06.448Z,101165.50
2022-09-15T19:07:33.578Z,101163.88
2022-09-15T19:10:01.607Z,101179.72
2022-09-15T19:12:28.025Z,101180.72
2022-09-15T19:14:54.520Z,101185.97
2022-09-15T19:17:21.323Z,101186.94
2022-09-15T19:19:47.758Z,101177.94
2022-09-15T19:22:14.141Z,101177.31
2022-09-15T19:24:40.504Z,101186.53
2022-09-15T19:27:08.727Z,101185.09
2022-09-15T19:29:36.709Z,101180.69
2022-09-15T19:32:09.973Z,101174.25
2022-09-15T19:34:38.536Z,101172.44
2022-09-15T19:37:11.362Z,101178.47
2022-09-15T19:39:40.641Z,101187.66
2022-09-15T19:42:07.727Z,101182.19
2022-09-15T19:44:34.295Z,101192.22
2022-09-15T19:47:00.823Z,101181.97
2022-09-15T19:49:27.233Z,101190.19
2022-09-15T19:51:57.584Z,101197.97
2022-09-15T19:54:26.465Z,101199.50
2022-09-15T19:56:52.994Z,101189.66
2022-09-15T19:59:19.921Z,101200.28
2022-09-15T20:01:46.952Z,101208.47
2022-09-15T20:06:58.428Z,101213.69
2022-09-15T20:09:24.930Z,101203.25
2022-09-15T20:11:51.228Z,101195.19
2022-09-15T20:14:17.549Z,101195.19
2022-09-15T20:16:43.995Z,101197.00
2022-09-15T20:19:10.653Z,101196.41
2022-09-15T20:21:49.835Z,101194.97
2022-09-15T20:24:17.652Z,101193.34
2022-09-15T20:26:44.008Z,101198.97
2022-09-15T20:29:10.972Z,101203.09
2022-09-15T20:31:37.467Z,101198.44
2022-09-15T20:34:03.961Z,101206.03
2022-09-15T20:36:33.764Z,101204.41
2022-09-15T20:39:03.183Z,101201.63
2022-09-15T20:41:31.839Z,101205.22
2022-09-15T20:43:58.409Z,101205.06
2022-09-15T20:46:25.193Z,101200.03
2022-09-15T20:48:52.204Z,101202.44
2022-09-15T20:51:23.996Z,101196.78
2022-09-15T20:53:52.742Z,101193.19
2022-09-15T20:56:24.638Z,101199.19
2022-09-15T20:58:52.190Z,101194.56
2022-09-15T21:01:24.926Z,101200.75
2022-09-15T21:03:51.694Z,101202.94
2022-09-15T21:06:20.886Z,101199.91
2022-09-15T21:08:48.581Z,101204.66
2022-09-15T21:11:16.686Z,101203.44
2022-09-15T21:13:43.623Z,101209.38
2022-09-15T21:16:12.446Z,101208.13
2022-09-15T21:18:40.465Z,101205.63
2022-09-15T21:21:09.876Z,101208.19
2022-09-15T21:23:48.096Z,101209.50
2022-09-15T21:26:17.844Z,101204.34
2022-09-15T21:28:44.867Z,101199.72
2022-09-15T21:31:17.435Z,101209.66
2022-09-15T21:33:45.308Z,101216.56
2022-09-15T21:36:23.353Z,101218.09
2022-09-15T21:38:51.488Z,101217.66
2022-09-15T21:41:20.980Z,101225.66
2022-09-15T21:43:48.431Z,101219.47
2022-09-15T21:46:16.984Z,101214.44
2022-09-15T21:48:44.291Z,101213.00
2022-09-15T21:51:13.046Z,101217.94
2022-09-15T21:53:39.453Z,101219.13
2022-09-15T21:56:08.888Z,101219.47
2022-09-15T21:58:42.469Z,101216.41
2022-09-15T22:01:16.793Z,101221.81
2022-09-15T22:03:43.470Z,101222.16
2022-09-15T22:06:11.927Z,101217.31
2022-09-15T22:08:40.341Z,101222.06
2022-09-15T22:11:08.118Z,101227.81
2022-09-15T22:13:40.518Z,101222.97
2022-09-15T22:16:10.118Z,101224.13
2022-09-15T22:18:37.911Z,101226.72
2022-09-15T22:21:10.036Z,101219.28
2022-09-15T22:23:36.447Z,101215.25
2022-09-15T22:26:09.756Z,101216.66
2022-09-15T22:28:36.285Z,101209.88
2022-09-15T22:31:06.221Z,101195.41
2022-09-15T22:33:32.814Z,101199.34
2022-09-15T22:35:59.189Z,101193.50
2022-09-15T22:38:27.798Z,101192.09
2022-09-15T22:40:54.343Z,101191.44
2022-09-15T22:43:21.275Z,101200.44
2022-09-15T22:45:48.003Z,101191.97
2022-09-15T22:48:14.756Z,101191.34
2022-09-15T22:50:44.722Z,101193.31
2022-09-15T22:53:12.772Z,101189.28
2022-09-15T22:55:39.710Z,101200.69
2022-09-15T22:58:06.366Z,101191.44
2022-09-15T23:00:32.987Z,101192.44
2022-09-15T23:02:59.700Z,101194.72
2022-09-15T23:05:26.168Z,101197.84
2022-09-15T23:07:52.507Z,101204.56
2022-09-15T23:10:18.853Z,101198.09
2022-09-15T23:12:45.337Z,101192.78
2022-09-15T23:15:11.696Z,101197.38
2022-09-15T23:17:38.995Z,101206.31
2022-09-15T23:20:05.723Z,101204.72
2022-09-15T23:22:32.070Z,101211.72
2022-09-15T23:24:58.416Z,101205.16
2022-09-15T23:27:24.890Z,101207.06
2022-09-15T23:29:51.440Z,101210.06
2022-09-15T23:32:17.820Z,101203.97
2022-09-15T23:34:44.145Z,101202.44
2022-09-15T23:37:10.498Z,101200.34
2022-09-15T23:39:36.866Z,101197.56
2022-09-15T23:42:03.461Z,101199.78
2022-09-15T23:44:29.809Z,101203.19
2022-09-15T23:46:56.214Z,101198.97
2022-09-15T23:49:22.588Z,101191.97
2022-09-15T23:51:49.078Z,101204.63
2022-09-15T23:54:15.454Z,101200.44
2022-09-15T23:56:43.224Z,101201.06
2022-09-15T23:59:09.830Z,101209.28
